sensor_id;sensor_type;location;lat;lon;timestamp;P1;durP1;ratioP1;P2;durP2;ratioP2
28007;SDS011;15333;50.010;20.020;2023-04-24T00:02:46;11.93;;;7.47;;
28007;SDS011;15333;50.010;20.020;2023-04-24T00:05:48;12.38;;;7.57;;
28007;SDS011;15333;50.010;20.020;2023-04-24T00:08:49;10.50;;;7.60;;
28007;SDS011;15333;50.010;20.020;2023-04-24T00:11:50;12.93;;;8.13;;
28007;SDS011;15333;50.010;20.020;2023-04-24T00:14:51;14.85;;;8.48;;
28007;SDS011;15333;50.010;20.020;2023-04-24T00:17:51;13.43;;;8.38;;
28007;SDS011;15333;50.010;20.020;2023-04-24T00:20:53;11.18;;;8.27;;
28007;SDS011;15333;50.010;20.020;2023-04-24T00:23:54;17.13;;;8.40;;
28007;SDS011;15333;50.010;20.020;2023-04-24T00:26:55;13.25;;;8.30;;
28007;SDS011;15333;50.010;20.020;2023-04-24T00:29:56;10.52;;;7.88;;
28007;SDS011;15333;50.010;20.020;2023-04-24T00:32:57;12.45;;;7.70;;
28007;SDS011;15333;50.010;20.020;2023-04-24T00:35:58;11.88;;;7.68;;
28007;SDS011;15333;50.010;20.020;2023-04-24T00:39:00;14.18;;;7.88;;
28007;SDS011;15333;50.010;20.020;2023-04-24T00:42:01;10.63;;;7.95;;
28007;SDS011;15333;50.010;20.020;2023-04-24T00:45:02;10.10;;;7.35;;
28007;SDS011;15333;50.010;20.020;2023-04-24T00:48:04;14.43;;;8.40;;
28007;SDS011;15333;50.010;20.020;2023-04-24T00:51:05;9.57;;;7.70;;
28007;SDS011;15333;50.010;20.020;2023-04-24T00:54:06;10.05;;;7.93;;
28007;SDS011;15333;50.010;20.020;2023-04-24T00:57:08;11.95;;;8.05;;
28007;SDS011;15333;50.010;20.020;2023-04-24T01:00:09;10.95;;;7.53;;
28007;SDS011;15333;50.010;20.020;2023-04-24T01:03:13;11.20;;;7.57;;
28007;SDS011;15333;50.010;20.020;2023-04-24T01:06:14;12.85;;;7.43;;
28007;SDS011;15333;50.010;20.020;2023-04-24T01:09:16;8.80;;;7.07;;
28007;SDS011;15333;50.010;20.020;2023-04-24T01:12:18;11.65;;;7.78;;
28007;SDS011;15333;50.010;20.020;2023-04-24T01:15:20;13.73;;;7.70;;
28007;SDS011;15333;50.010;20.020;2023-04-24T01:18:21;10.68;;;7.13;;
28007;SDS011;15333;50.010;20.020;2023-04-24T01:21:24;15.75;;;7.63;;
28007;SDS011;15333;50.010;20.020;2023-04-24T01:24:31;11.13;;;7.82;;
28007;SDS011;15333;50.010;20.020;2023-04-24T01:27:32;11.65;;;7.55;;
28007;SDS011;15333;50.010;20.020;2023-04-24T01:30:33;13.90;;;7.53;;
28007;SDS011;15333;50.010;20.020;2023-04-24T01:33:34;12.18;;;7.82;;
28007;SDS011;15333;50.010;20.020;2023-04-24T01:36:35;13.45;;;7.78;;
28007;SDS011;15333;50.010;20.020;2023-04-24T01:39:37;16.65;;;8.20;;
28007;SDS011;15333;50.010;20.020;2023-04-24T01:42:37;15.10;;;8.18;;
28007;SDS011;15333;50.010;20.020;2023-04-24T01:45:39;17.27;;;8.93;;
28007;SDS011;15333;50.010;20.020;2023-04-24T01:48:40;12.38;;;8.80;;
28007;SDS011;15333;50.010;20.020;2023-04-24T01:51:42;11.40;;;7.45;;
28007;SDS011;15333;50.010;20.020;2023-04-24T01:54:43;12.38;;;7.97;;
28007;SDS011;15333;50.010;20.020;2023-04-24T01:57:44;12.95;;;7.50;;
28007;SDS011;15333;50.010;20.020;2023-04-24T02:00:44;13.77;;;7.43;;
28007;SDS011;15333;50.010;20.020;2023-04-24T02:03:46;11.48;;;7.70;;
28007;SDS011;15333;50.010;20.020;2023-04-24T02:06:46;13.00;;;7.95;;
28007;SDS011;15333;50.010;20.020;2023-04-24T02:09:47;10.25;;;7.45;;
28007;SDS011;15333;50.010;20.020;2023-04-24T02:12:48;9.57;;;7.40;;
28007;SDS011;15333;50.010;20.020;2023-04-24T02:15:49;12.10;;;7.80;;
28007;SDS011;15333;50.010;20.020;2023-04-24T02:18:50;13.73;;;7.88;;
28007;SDS011;15333;50.010;20.020;2023-04-24T02:21:51;9.95;;;7.35;;
28007;SDS011;15333;50.010;20.020;2023-04-24T02:24:53;12.18;;;7.43;;
28007;SDS011;15333;50.010;20.020;2023-04-24T02:27:54;11.13;;;8.43;;
28007;SDS011;15333;50.010;20.020;2023-04-24T02:30:55;13.57;;;8.00;;
28007;SDS011;15333;50.010;20.020;2023-04-24T02:33:56;13.85;;;8.48;;
28007;SDS011;15333;50.010;20.020;2023-04-24T02:36:57;26.48;;;8.57;;
28007;SDS011;15333;50.010;20.020;2023-04-24T02:39:58;14.93;;;8.75;;
28007;SDS011;15333;50.010;20.020;2023-04-24T02:42:59;14.80;;;7.40;;
28007;SDS011;15333;50.010;20.020;2023-04-24T02:46:01;16.33;;;8.27;;
28007;SDS011;15333;50.010;20.020;2023-04-24T02:49:03;12.18;;;7.80;;
28007;SDS011;15333;50.010;20.020;2023-04-24T02:52:04;14.98;;;8.18;;
28007;SDS011;15333;50.010;20.020;2023-04-24T02:55:05;15.90;;;8.02;;
28007;SDS011;15333;50.010;20.020;2023-04-24T02:58:06;12.55;;;7.20;;
28007;SDS011;15333;50.010;20.020;2023-04-24T03:01:07;15.57;;;8.95;;
28007;SDS011;15333;50.010;20.020;2023-04-24T03:04:10;16.35;;;8.48;;
28007;SDS011;15333;50.010;20.020;2023-04-24T03:07:12;19.85;;;8.90;;
28007;SDS011;15333;50.010;20.020;2023-04-24T03:10:13;24.05;;;9.32;;
28007;SDS011;15333;50.010;20.020;2023-04-24T03:13:15;16.98;;;8.70;;
28007;SDS011;15333;50.010;20.020;2023-04-24T03:16:18;17.20;;;9.13;;
28007;SDS011;15333;50.010;20.020;2023-04-24T03:19:18;13.95;;;8.93;;
28007;SDS011;15333;50.010;20.020;2023-04-24T03:22:31;12.48;;;8.85;;
28007;SDS011;15333;50.010;20.020;2023-04-24T03:25:35;18.02;;;8.30;;
28007;SDS011;15333;50.010;20.020;2023-04-24T03:28:37;19.08;;;9.38;;
28007;SDS011;15333;50.010;20.020;2023-04-24T03:31:38;24.00;;;9.07;;
28007;SDS011;15333;50.010;20.020;2023-04-24T03:34:39;18.65;;;8.90;;
28007;SDS011;15333;50.010;20.020;2023-04-24T03:37:42;21.98;;;9.10;;
28007;SDS011;15333;50.010;20.020;2023-04-24T03:41:05;23.55;;;9.00;;
28007;SDS011;15333;50.010;20.020;2023-04-24T03:44:32;20.27;;;10.02;;
28007;SDS011;15333;50.010;20.020;2023-04-24T03:47:35;21.60;;;9.90;;
28007;SDS011;15333;50.010;20.020;2023-04-24T03:50:39;23.33;;;9.98;;
28007;SDS011;15333;50.010;20.020;2023-04-24T03:53:43;32.60;;;10.10;;
28007;SDS011;15333;50.010;20.020;2023-04-24T03:56:46;20.27;;;10.15;;
28007;SDS011;15333;50.010;20.020;2023-04-24T03:59:48;19.27;;;10.40;;
28007;SDS011;15333;50.010;20.020;2023-04-24T04:02:52;20.27;;;9.45;;
28007;SDS011;15333;50.010;20.020;2023-04-24T04:05:53;24.42;;;12.35;;
28007;SDS011;15333;50.010;20.020;2023-04-24T04:08:54;22.35;;;12.27;;
28007;SDS011;15333;50.010;20.020;2023-04-24T04:11:55;30.13;;;11.88;;
28007;SDS011;15333;50.010;20.020;2023-04-24T04:14:56;27.48;;;11.95;;
28007;SDS011;15333;50.010;20.020;2023-04-24T04:17:58;29.73;;;12.38;;
28007;SDS011;15333;50.010;20.020;2023-04-24T04:20:59;23.27;;;11.00;;
28007;SDS011;15333;50.010;20.020;2023-04-24T04:24:02;25.02;;;10.70;;
28007;SDS011;15333;50.010;20.020;2023-04-24T04:27:10;23.92;;;11.27;;
28007;SDS011;15333;50.010;20.020;2023-04-24T04:30:28;21.27;;;11.23;;
28007;SDS011;15333;50.010;20.020;2023-04-24T04:33:36;23.55;;;11.40;;
28007;SDS011;15333;50.010;20.020;2023-04-24T04:36:40;28.13;;;11.23;;
28007;SDS011;15333;50.010;20.020;2023-04-24T04:39:56;25.10;;;10.05;;
28007;SDS011;15333;50.010;20.020;2023-04-24T04:43:05;16.90;;;9.55;;
28007;SDS011;15333;50.010;20.020;2023-04-24T04:46:13;20.13;;;11.38;;
28007;SDS011;15333;50.010;20.020;2023-04-24T04:49:24;21.45;;;10.45;;
28007;SDS011;15333;50.010;20.020;2023-04-24T04:52:25;17.10;;;9.75;;
28007;SDS011;15333;50.010;20.020;2023-04-24T04:55:35;22.08;;;9.95;;
28007;SDS011;15333;50.010;20.020;2023-04-24T04:58:48;20.00;;;10.73;;
28007;SDS011;15333;50.010;20.020;2023-04-24T05:01:51;17.85;;;10.05;;
28007;SDS011;15333;50.010;20.020;2023-04-24T05:04:52;18.88;;;10.70;;
28007;SDS011;15333;50.010;20.020;2023-04-24T05:07:53;18.35;;;10.93;;
28007;SDS011;15333;50.010;20.020;2023-04-24T05:10:54;21.30;;;11.18;;
28007;SDS011;15333;50.010;20.020;2023-04-24T05:13:56;15.68;;;11.13;;
28007;SDS011;15333;50.010;20.020;2023-04-24T05:17:06;18.67;;;11.38;;
28007;SDS011;15333;50.010;20.020;2023-04-24T05:20:07;22.95;;;11.52;;
28007;SDS011;15333;50.010;20.020;2023-04-24T05:23:09;20.83;;;11.52;;
28007;SDS011;15333;50.010;20.020;2023-04-24T05:26:13;17.33;;;10.88;;
28007;SDS011;15333;50.010;20.020;2023-04-24T05:29:15;18.30;;;11.95;;
28007;SDS011;15333;50.010;20.020;2023-04-24T05:32:17;21.27;;;11.85;;
28007;SDS011;15333;50.010;20.020;2023-04-24T05:35:18;20.45;;;11.70;;
28007;SDS011;15333;50.010;20.020;2023-04-24T05:38:20;26.80;;;11.73;;
28007;SDS011;15333;50.010;20.020;2023-04-24T05:41:21;20.48;;;12.48;;
28007;SDS011;15333;50.010;20.020;2023-04-24T05:44:23;25.17;;;12.80;;
28007;SDS011;15333;50.010;20.020;2023-04-24T05:47:23;39.15;;;15.20;;
28007;SDS011;15333;50.010;20.020;2023-04-24T05:50:26;22.52;;;12.57;;
28007;SDS011;15333;50.010;20.020;2023-04-24T05:53:27;39.17;;;13.10;;
28007;SDS011;15333;50.010;20.020;2023-04-24T05:56:28;34.72;;;13.27;;
28007;SDS011;15333;50.010;20.020;2023-04-24T05:59:29;39.95;;;13.32;;
28007;SDS011;15333;50.010;20.020;2023-04-24T06:02:32;28.80;;;12.85;;
28007;SDS011;15333;50.010;20.020;2023-04-24T06:05:34;39.40;;;14.20;;
28007;SDS011;15333;50.010;20.020;2023-04-24T06:08:37;45.20;;;14.43;;
28007;SDS011;15333;50.010;20.020;2023-04-24T06:11:38;49.17;;;14.45;;
28007;SDS011;15333;50.010;20.020;2023-04-24T06:14:40;48.38;;;14.52;;
28007;SDS011;15333;50.010;20.020;2023-04-24T06:17:54;29.55;;;13.48;;
28007;SDS011;15333;50.010;20.020;2023-04-24T06:20:55;44.00;;;14.18;;
28007;SDS011;15333;50.010;20.020;2023-04-24T06:23:57;37.60;;;15.18;;
28007;SDS011;15333;50.010;20.020;2023-04-24T06:26:58;33.58;;;14.38;;
28007;SDS011;15333;50.010;20.020;2023-04-24T06:30:01;40.55;;;14.63;;
28007;SDS011;15333;50.010;20.020;2023-04-24T06:33:02;38.78;;;13.45;;
28007;SDS011;15333;50.010;20.020;2023-04-24T06:36:03;30.27;;;11.77;;
28007;SDS011;15333;50.010;20.020;2023-04-24T06:39:04;27.08;;;11.68;;
28007;SDS011;15333;50.010;20.020;2023-04-24T06:42:05;39.35;;;12.88;;
28007;SDS011;15333;50.010;20.020;2023-04-24T06:45:08;30.02;;;13.85;;
28007;SDS011;15333;50.010;20.020;2023-04-24T06:48:10;30.92;;;11.23;;
28007;SDS011;15333;50.010;20.020;2023-04-24T06:51:11;28.88;;;11.02;;
28007;SDS011;15333;50.010;20.020;2023-04-24T06:54:12;35.00;;;11.43;;
28007;SDS011;15333;50.010;20.020;2023-04-24T06:57:13;24.30;;;10.43;;
28007;SDS011;15333;50.010;20.020;2023-04-24T07:00:14;20.60;;;9.13;;
28007;SDS011;15333;50.010;20.020;2023-04-24T07:03:16;23.13;;;8.98;;
28007;SDS011;15333;50.010;20.020;2023-04-24T07:06:16;16.85;;;8.95;;
28007;SDS011;15333;50.010;20.020;2023-04-24T07:09:19;30.77;;;9.00;;
28007;SDS011;15333;50.010;20.020;2023-04-24T07:12:20;11.80;;;7.35;;
28007;SDS011;15333;50.010;20.020;2023-04-24T07:15:22;11.98;;;6.72;;
28007;SDS011;15333;50.010;20.020;2023-04-24T07:18:23;8.18;;;6.30;;
28007;SDS011;15333;50.010;20.020;2023-04-24T07:21:25;11.65;;;6.47;;
28007;SDS011;15333;50.010;20.020;2023-04-24T07:24:25;10.07;;;6.00;;
28007;SDS011;15333;50.010;20.020;2023-04-24T07:27:27;9.95;;;5.82;;
28007;SDS011;15333;50.010;20.020;2023-04-24T07:30:27;11.45;;;5.95;;
28007;SDS011;15333;50.010;20.020;2023-04-24T07:33:29;10.55;;;5.97;;
28007;SDS011;15333;50.010;20.020;2023-04-24T07:36:30;8.80;;;5.28;;
28007;SDS011;15333;50.010;20.020;2023-04-24T07:39:32;10.43;;;5.85;;
28007;SDS011;15333;50.010;20.020;2023-04-24T07:42:33;9.63;;;5.68;;
28007;SDS011;15333;50.010;20.020;2023-04-24T07:45:35;16.27;;;6.13;;
28007;SDS011;15333;50.010;20.020;2023-04-24T07:48:37;9.30;;;5.50;;
28007;SDS011;15333;50.010;20.020;2023-04-24T07:51:39;9.23;;;5.68;;
28007;SDS011;15333;50.010;20.020;2023-04-24T07:54:40;10.05;;;5.90;;
28007;SDS011;15333;50.010;20.020;2023-04-24T07:57:41;6.50;;;5.68;;
28007;SDS011;15333;50.010;20.020;2023-04-24T08:00:42;7.10;;;5.47;;
28007;SDS011;15333;50.010;20.020;2023-04-24T08:03:43;9.63;;;5.97;;
28007;SDS011;15333;50.010;20.020;2023-04-24T08:06:43;8.75;;;5.75;;
28007;SDS011;15333;50.010;20.020;2023-04-24T08:09:44;8.93;;;5.40;;
28007;SDS011;15333;50.010;20.020;2023-04-24T08:12:48;7.68;;;5.45;;
28007;SDS011;15333;50.010;20.020;2023-04-24T08:15:49;6.28;;;5.63;;
28007;SDS011;15333;50.010;20.020;2023-04-24T08:18:50;9.85;;;6.43;;
28007;SDS011;15333;50.010;20.020;2023-04-24T08:21:51;8.88;;;5.68;;
28007;SDS011;15333;50.010;20.020;2023-04-24T08:24:52;7.57;;;5.75;;
28007;SDS011;15333;50.010;20.020;2023-04-24T08:27:54;6.05;;;5.05;;
28007;SDS011;15333;50.010;20.020;2023-04-24T08:30:55;8.15;;;5.85;;
28007;SDS011;15333;50.010;20.020;2023-04-24T08:33:56;9.10;;;5.72;;
28007;SDS011;15333;50.010;20.020;2023-04-24T08:36:57;11.98;;;5.82;;
28007;SDS011;15333;50.010;20.020;2023-04-24T08:39:58;6.15;;;5.20;;
28007;SDS011;15333;50.010;20.020;2023-04-24T08:42:58;6.85;;;5.75;;
28007;SDS011;15333;50.010;20.020;2023-04-24T08:46:00;8.93;;;5.88;;
28007;SDS011;15333;50.010;20.020;2023-04-24T08:49:01;8.38;;;5.28;;
28007;SDS011;15333;50.010;20.020;2023-04-24T08:52:03;11.75;;;5.57;;
28007;SDS011;15333;50.010;20.020;2023-04-24T08:55:05;9.98;;;5.68;;
28007;SDS011;15333;50.010;20.020;2023-04-24T08:58:06;13.63;;;5.55;;
28007;SDS011;15333;50.010;20.020;2023-04-24T09:01:08;10.20;;;5.75;;
28007;SDS011;15333;50.010;20.020;2023-04-24T09:04:09;7.53;;;5.43;;
28007;SDS011;15333;50.010;20.020;2023-04-24T09:07:12;7.28;;;5.53;;
28007;SDS011;15333;50.010;20.020;2023-04-24T09:10:17;5.53;;;4.82;;
28007;SDS011;15333;50.010;20.020;2023-04-24T09:13:18;8.60;;;5.28;;
28007;SDS011;15333;50.010;20.020;2023-04-24T09:16:20;8.77;;;5.30;;
28007;SDS011;15333;50.010;20.020;2023-04-24T09:19:21;10.93;;;5.43;;
28007;SDS011;15333;50.010;20.020;2023-04-24T09:22:23;11.02;;;5.40;;
28007;SDS011;15333;50.010;20.020;2023-04-24T09:25:34;6.50;;;4.65;;
28007;SDS011;15333;50.010;20.020;2023-04-24T09:28:39;7.45;;;5.40;;
28007;SDS011;15333;50.010;20.020;2023-04-24T09:31:41;6.40;;;4.78;;
28007;SDS011;15333;50.010;20.020;2023-04-24T09:34:42;7.50;;;5.13;;
28007;SDS011;15333;50.010;20.020;2023-04-24T09:37:45;12.27;;;5.68;;
28007;SDS011;15333;50.010;20.020;2023-04-24T09:40:46;8.65;;;4.88;;
28007;SDS011;15333;50.010;20.020;2023-04-24T09:43:47;7.68;;;5.15;;
28007;SDS011;15333;50.010;20.020;2023-04-24T09:46:49;12.85;;;5.43;;
28007;SDS011;15333;50.010;20.020;2023-04-24T09:49:51;8.75;;;5.05;;
28007;SDS011;15333;50.010;20.020;2023-04-24T09:52:59;8.93;;;5.60;;
28007;SDS011;15333;50.010;20.020;2023-04-24T09:56:06;10.57;;;5.57;;
28007;SDS011;15333;50.010;20.020;2023-04-24T09:59:08;9.23;;;4.93;;
28007;SDS011;15333;50.010;20.020;2023-04-24T10:02:19;6.70;;;5.47;;
28007;SDS011;15333;50.010;20.020;2023-04-24T10:05:24;5.80;;;5.20;;
28007;SDS011;15333;50.010;20.020;2023-04-24T10:08:32;8.38;;;5.00;;
28007;SDS011;15333;50.010;20.020;2023-04-24T10:11:35;7.18;;;4.95;;
28007;SDS011;15333;50.010;20.020;2023-04-24T10:14:35;12.10;;;5.28;;
28007;SDS011;15333;50.010;20.020;2023-04-24T10:17:37;7.38;;;4.75;;
28007;SDS011;15333;50.010;20.020;2023-04-24T10:20:40;9.93;;;4.60;;
28007;SDS011;15333;50.010;20.020;2023-04-24T10:23:41;10.02;;;5.40;;
28007;SDS011;15333;50.010;20.020;2023-04-24T10:26:43;6.78;;;4.43;;
28007;SDS011;15333;50.010;20.020;2023-04-24T10:29:46;5.18;;;4.50;;
28007;SDS011;15333;50.010;20.020;2023-04-24T10:32:48;6.20;;;4.88;;
28007;SDS011;15333;50.010;20.020;2023-04-24T10:35:49;7.07;;;4.40;;
28007;SDS011;15333;50.010;20.020;2023-04-24T10:38:52;7.00;;;5.35;;
28007;SDS011;15333;50.010;20.020;2023-04-24T10:41:56;5.53;;;4.75;;
28007;SDS011;15333;50.010;20.020;2023-04-24T10:44:58;7.40;;;5.10;;
28007;SDS011;15333;50.010;20.020;2023-04-24T10:48:00;9.68;;;4.82;;
28007;SDS011;15333;50.010;20.020;2023-04-24T10:51:03;8.05;;;5.10;;
28007;SDS011;15333;50.010;20.020;2023-04-24T10:54:21;10.60;;;5.10;;
28007;SDS011;15333;50.010;20.020;2023-04-24T11:01:03;5.65;;;4.70;;
28007;SDS011;15333;50.010;20.020;2023-04-24T11:04:04;5.88;;;4.90;;
28007;SDS011;15333;50.010;20.020;2023-04-24T11:07:05;7.28;;;4.50;;
28007;SDS011;15333;50.010;20.020;2023-04-24T11:10:06;8.18;;;5.18;;
28007;SDS011;15333;50.010;20.020;2023-04-24T11:13:07;6.07;;;5.07;;
28007;SDS011;15333;50.010;20.020;2023-04-24T11:16:12;7.95;;;5.10;;
28007;SDS011;15333;50.010;20.020;2023-04-24T11:22:17;10.57;;;4.68;;
28007;SDS011;15333;50.010;20.020;2023-04-24T11:25:20;8.60;;;5.30;;
28007;SDS011;15333;50.010;20.020;2023-04-24T11:28:22;7.78;;;4.82;;
28007;SDS011;15333;50.010;20.020;2023-04-24T11:31:58;6.45;;;4.68;;
28007;SDS011;15333;50.010;20.020;2023-04-24T11:34:58;17.13;;;9.88;;
28007;SDS011;15333;50.010;20.020;2023-04-24T11:38:02;14.15;;;5.25;;
28007;SDS011;15333;50.010;20.020;2023-04-24T11:41:03;7.25;;;4.80;;
28007;SDS011;15333;50.010;20.020;2023-04-24T11:44:06;7.28;;;5.07;;
28007;SDS011;15333;50.010;20.020;2023-04-24T11:47:09;6.85;;;4.80;;
28007;SDS011;15333;50.010;20.020;2023-04-24T11:50:13;10.88;;;5.35;;
28007;SDS011;15333;50.010;20.020;2023-04-24T11:53:15;6.63;;;5.13;;
28007;SDS011;15333;50.010;20.020;2023-04-24T11:56:19;7.90;;;5.47;;
28007;SDS011;15333;50.010;20.020;2023-04-24T12:07:23;6.88;;;5.32;;
28007;SDS011;15333;50.010;20.020;2023-04-24T12:10:29;7.47;;;5.65;;
28007;SDS011;15333;50.010;20.020;2023-04-24T12:13:31;11.00;;;5.53;;
28007;SDS011;15333;50.010;20.020;2023-04-24T12:16:32;8.45;;;5.25;;
28007;SDS011;15333;50.010;20.020;2023-04-24T12:19:33;13.18;;;6.40;;
28007;SDS011;15333;50.010;20.020;2023-04-24T12:22:50;8.95;;;6.15;;
28007;SDS011;15333;50.010;20.020;2023-04-24T12:25:59;9.07;;;5.90;;
28007;SDS011;15333;50.010;20.020;2023-04-24T12:29:02;12.80;;;5.88;;
28007;SDS011;15333;50.010;20.020;2023-04-24T12:32:04;11.82;;;6.13;;
28007;SDS011;15333;50.010;20.020;2023-04-24T12:35:07;10.20;;;5.95;;
28007;SDS011;15333;50.010;20.020;2023-04-24T12:38:09;8.93;;;5.63;;
28007;SDS011;15333;50.010;20.020;2023-04-24T12:41:13;6.28;;;5.30;;
28007;SDS011;15333;50.010;20.020;2023-04-24T12:44:19;8.10;;;6.28;;
28007;SDS011;15333;50.010;20.020;2023-04-24T12:47:20;9.05;;;6.00;;
28007;SDS011;15333;50.010;20.020;2023-04-24T12:50:21;12.25;;;7.35;;
28007;SDS011;15333;50.010;20.020;2023-04-24T12:53:22;19.02;;;6.82;;
28007;SDS011;15333;50.010;20.020;2023-04-24T12:56:23;7.70;;;6.90;;
28007;SDS011;15333;50.010;20.020;2023-04-24T12:59:24;10.35;;;7.70;;
28007;SDS011;15333;50.010;20.020;2023-04-24T13:02:27;14.43;;;8.07;;
28007;SDS011;15333;50.010;20.020;2023-04-24T13:05:31;15.52;;;7.47;;
28007;SDS011;15333;50.010;20.020;2023-04-24T13:08:31;15.90;;;10.93;;
28007;SDS011;15333;50.010;20.020;2023-04-24T13:11:32;17.30;;;8.30;;
28007;SDS011;15333;50.010;20.020;2023-04-24T13:14:33;12.13;;;7.38;;
28007;SDS011;15333;50.010;20.020;2023-04-24T13:17:34;14.52;;;7.45;;
28007;SDS011;15333;50.010;20.020;2023-04-24T13:20:35;9.98;;;7.07;;
28007;SDS011;15333;50.010;20.020;2023-04-24T13:23:36;11.63;;;7.53;;
28007;SDS011;15333;50.010;20.020;2023-04-24T13:26:37;10.52;;;6.80;;
28007;SDS011;15333;50.010;20.020;2023-04-24T13:29:38;11.70;;;6.53;;
28007;SDS011;15333;50.010;20.020;2023-04-24T13:32:39;9.88;;;6.75;;
28007;SDS011;15333;50.010;20.020;2023-04-24T13:35:40;10.43;;;6.20;;
28007;SDS011;15333;50.010;20.020;2023-04-24T13:38:41;15.13;;;7.00;;
28007;SDS011;15333;50.010;20.020;2023-04-24T13:41:42;11.02;;;6.25;;
28007;SDS011;15333;50.010;20.020;2023-04-24T13:44:43;11.75;;;6.13;;
28007;SDS011;15333;50.010;20.020;2023-04-24T13:47:44;10.57;;;7.05;;
28007;SDS011;15333;50.010;20.020;2023-04-24T13:50:46;9.82;;;5.78;;
28007;SDS011;15333;50.010;20.020;2023-04-24T13:53:48;9.00;;;6.82;;
28007;SDS011;15333;50.010;20.020;2023-04-24T13:56:49;11.63;;;6.43;;
28007;SDS011;15333;50.010;20.020;2023-04-24T13:59:52;7.72;;;5.65;;
28007;SDS011;15333;50.010;20.020;2023-04-24T14:02:52;9.50;;;5.93;;
28007;SDS011;15333;50.010;20.020;2023-04-24T14:05:53;9.05;;;5.60;;
28007;SDS011;15333;50.010;20.020;2023-04-24T14:08:54;9.65;;;5.35;;
28007;SDS011;15333;50.010;20.020;2023-04-24T14:11:55;9.00;;;6.32;;
28007;SDS011;15333;50.010;20.020;2023-04-24T14:14:56;41.65;;;18.45;;
28007;SDS011;15333;50.010;20.020;2023-04-24T14:17:57;31.33;;;14.80;;
28007;SDS011;15333;50.010;20.020;2023-04-24T14:20:58;21.52;;;11.35;;
28007;SDS011;15333;50.010;20.020;2023-04-24T14:23:59;15.73;;;9.75;;
28007;SDS011;15333;50.010;20.020;2023-04-24T14:27:00;20.05;;;9.02;;
28007;SDS011;15333;50.010;20.020;2023-04-24T14:30:02;16.00;;;9.30;;
28007;SDS011;15333;50.010;20.020;2023-04-24T14:33:03;20.48;;;7.72;;
28007;SDS011;15333;50.010;20.020;2023-04-24T14:36:04;12.02;;;6.68;;
28007;SDS011;15333;50.010;20.020;2023-04-24T14:39:06;10.82;;;6.13;;
28007;SDS011;15333;50.010;20.020;2023-04-24T14:42:07;16.38;;;5.82;;
28007;SDS011;15333;50.010;20.020;2023-04-24T14:45:08;12.35;;;5.80;;
28007;SDS011;15333;50.010;20.020;2023-04-24T14:48:10;11.32;;;6.25;;
28007;SDS011;15333;50.010;20.020;2023-04-24T14:51:11;8.43;;;5.30;;
28007;SDS011;15333;50.010;20.020;2023-04-24T14:54:12;6.63;;;4.55;;
28007;SDS011;15333;50.010;20.020;2023-04-24T14:57:13;7.13;;;4.82;;
28007;SDS011;15333;50.010;20.020;2023-04-24T15:00:14;7.75;;;4.90;;
28007;SDS011;15333;50.010;20.020;2023-04-24T15:03:18;5.82;;;4.38;;
28007;SDS011;15333;50.010;20.020;2023-04-24T15:06:19;12.52;;;4.65;;
28007;SDS011;15333;50.010;20.020;2023-04-24T15:31:40;6.80;;;5.47;;
28007;SDS011;15333;50.010;20.020;2023-04-24T15:34:41;6.10;;;5.43;;
28007;SDS011;15333;50.010;20.020;2023-04-24T15:37:42;6.38;;;5.68;;
28007;SDS011;15333;50.010;20.020;2023-04-24T15:40:43;7.10;;;5.43;;
28007;SDS011;15333;50.010;20.020;2023-04-24T15:43:45;7.30;;;5.97;;
28007;SDS011;15333;50.010;20.020;2023-04-24T15:46:45;9.48;;;5.97;;
28007;SDS011;15333;50.010;20.020;2023-04-24T15:49:47;8.15;;;5.63;;
28007;SDS011;15333;50.010;20.020;2023-04-24T15:52:47;7.45;;;6.38;;
28007;SDS011;15333;50.010;20.020;2023-04-24T15:55:49;7.05;;;5.75;;
28007;SDS011;15333;50.010;20.020;2023-04-24T15:58:51;7.50;;;5.43;;
28007;SDS011;15333;50.010;20.020;2023-04-24T16:01:52;7.50;;;5.25;;
28007;SDS011;15333;50.010;20.020;2023-04-24T16:04:54;6.45;;;4.82;;
28007;SDS011;15333;50.010;20.020;2023-04-24T16:07:55;4.63;;;4.05;;
28007;SDS011;15333;50.010;20.020;2023-04-24T16:10:56;5.28;;;4.00;;
28007;SDS011;15333;50.010;20.020;2023-04-24T16:13:57;5.47;;;4.53;;
28007;SDS011;15333;50.010;20.020;2023-04-24T16:16:58;6.50;;;5.00;;
28007;SDS011;15333;50.010;20.020;2023-04-24T16:20:02;5.90;;;4.78;;
28007;SDS011;15333;50.010;20.020;2023-04-24T16:23:04;6.38;;;5.15;;
28007;SDS011;15333;50.010;20.020;2023-04-24T16:26:06;7.05;;;5.50;;
28007;SDS011;15333;50.010;20.020;2023-04-24T16:29:07;7.85;;;5.85;;
28007;SDS011;15333;50.010;20.020;2023-04-24T16:32:08;7.90;;;6.18;;
28007;SDS011;15333;50.010;20.020;2023-04-24T16:35:10;7.07;;;5.90;;
28007;SDS011;15333;50.010;20.020;2023-04-24T16:38:11;7.65;;;5.90;;
28007;SDS011;15333;50.010;20.020;2023-04-24T16:41:12;7.18;;;6.03;;
28007;SDS011;15333;50.010;20.020;2023-04-24T16:44:12;7.90;;;6.68;;
28007;SDS011;15333;50.010;20.020;2023-04-24T16:47:13;10.57;;;7.28;;
28007;SDS011;15333;50.010;20.020;2023-04-24T16:50:14;12.10;;;6.95;;
28007;SDS011;15333;50.010;20.020;2023-04-24T16:53:15;9.35;;;7.18;;
28007;SDS011;15333;50.010;20.020;2023-04-24T16:56:16;8.88;;;7.38;;
28007;SDS011;15333;50.010;20.020;2023-04-24T16:59:17;11.77;;;7.40;;
28007;SDS011;15333;50.010;20.020;2023-04-24T17:02:18;11.60;;;7.18;;
28007;SDS011;15333;50.010;20.020;2023-04-24T17:05:19;11.98;;;7.40;;
28007;SDS011;15333;50.010;20.020;2023-04-24T17:08:23;10.55;;;7.90;;
28007;SDS011;15333;50.010;20.020;2023-04-24T17:11:23;11.82;;;8.57;;
28007;SDS011;15333;50.010;20.020;2023-04-24T17:14:25;13.52;;;9.32;;
28007;SDS011;15333;50.010;20.020;2023-04-24T17:17:26;11.05;;;8.20;;
28007;SDS011;15333;50.010;20.020;2023-04-24T17:20:27;12.05;;;8.30;;
28007;SDS011;15333;50.010;20.020;2023-04-24T17:23:28;17.15;;;8.75;;
28007;SDS011;15333;50.010;20.020;2023-04-24T17:26:29;13.55;;;8.77;;
28007;SDS011;15333;50.010;20.020;2023-04-24T17:29:31;13.85;;;8.25;;
28007;SDS011;15333;50.010;20.020;2023-04-24T17:32:32;11.10;;;8.18;;
28007;SDS011;15333;50.010;20.020;2023-04-24T17:35:33;10.68;;;8.30;;
28007;SDS011;15333;50.010;20.020;2023-04-24T17:38:36;11.85;;;7.90;;
28007;SDS011;15333;50.010;20.020;2023-04-24T17:41:38;11.32;;;7.68;;
28007;SDS011;15333;50.010;20.020;2023-04-24T17:44:41;11.60;;;7.95;;
28007;SDS011;15333;50.010;20.020;2023-04-24T17:47:42;11.45;;;8.90;;
28007;SDS011;15333;50.010;20.020;2023-04-24T17:50:43;13.25;;;8.38;;
28007;SDS011;15333;50.010;20.020;2023-04-24T17:53:45;10.05;;;7.38;;
28007;SDS011;15333;50.010;20.020;2023-04-24T17:56:48;11.75;;;8.07;;
28007;SDS011;15333;50.010;20.020;2023-04-24T17:59:49;12.25;;;7.90;;
28007;SDS011;15333;50.010;20.020;2023-04-24T18:02:50;10.35;;;7.88;;
28007;SDS011;15333;50.010;20.020;2023-04-24T18:05:53;12.05;;;8.60;;
28007;SDS011;15333;50.010;20.020;2023-04-24T18:08:54;13.50;;;9.15;;
28007;SDS011;15333;50.010;20.020;2023-04-24T18:11:55;15.93;;;10.68;;
28007;SDS011;15333;50.010;20.020;2023-04-24T18:14:57;15.50;;;9.73;;
28007;SDS011;15333;50.010;20.020;2023-04-24T18:17:58;15.77;;;11.32;;
28007;SDS011;15333;50.010;20.020;2023-04-24T18:20:59;16.40;;;11.20;;
28007;SDS011;15333;50.010;20.020;2023-04-24T18:24:00;18.95;;;11.68;;
28007;SDS011;15333;50.010;20.020;2023-04-24T18:27:01;16.50;;;9.95;;